createdAt,value
2023-01-28T00:00:11.948Z,68.30
2023-01-28T00:03:15.954Z,68.30
2023-01-28T00:06:19.931Z,68.60
2023-01-28T00:09:22.911Z,69.40
2023-01-28T00:12:27.514Z,68.40
2023-01-28T00:27:47.408Z,68.60
2023-01-28T00:43:06.453Z,68.30
2023-01-28T00:46:11.924Z,68.10
2023-01-28T00:49:15.337Z,69.20
2023-01-28T00:58:27.889Z,68.50
2023-01-28T01:01:31.263Z,67.60
2023-01-28T01:10:45.552Z,67.20
2023-01-28T01:13:56.707Z,68.90
2023-01-28T01:23:07.086Z,68.90
2023-01-28T01:29:17.071Z,67.90
2023-01-28T01:32:20.483Z,67.80
2023-01-28T01:35:23.539Z,69.80
2023-01-28T01:41:32.588Z,69.10
2023-01-28T01:44:59.853Z,70.20
2023-01-28T01:48:10.874Z,70.00
2023-01-28T01:51:19.031Z,69.70
2023-01-28T01:54:26.484Z,69.00
2023-01-28T01:57:35.685Z,70.30
2023-01-28T02:00:41.338Z,69.90
2023-01-28T02:03:54.795Z,70.40
2023-01-28T02:07:01.516Z,70.90
2023-01-28T02:10:08.146Z,70.60
2023-01-28T02:13:11.231Z,71.10
2023-01-28T02:16:15.967Z,70.60
2023-01-28T02:19:27.189Z,69.50
2023-01-28T02:23:14.432Z,70.70
2023-01-28T02:26:51.312Z,71.30
2023-01-28T02:30:04.462Z,70.00
2023-01-28T02:33:14.960Z,69.90
2023-01-28T02:39:37.168Z,70.40
2023-01-28T02:42:43.437Z,69.70
2023-01-28T02:46:01.894Z,70.30
2023-01-28T02:49:10.204Z,69.60
2023-01-28T02:52:56.939Z,69.70
2023-01-28T02:56:13.820Z,70.40
2023-01-28T02:59:36.685Z,70.60
2023-01-28T03:02:54.461Z,69.60
2023-01-28T03:06:07.821Z,70.20
2023-01-28T03:09:26.197Z,70.00
2023-01-28T03:12:49.671Z,72.80
2023-01-28T03:16:11.597Z,69.40
2023-01-28T03:23:07.756Z,69.20
2023-01-28T03:26:32.945Z,69.10
2023-01-28T03:29:56.294Z,69.30
2023-01-28T03:36:41.651Z,69.30
2023-01-28T03:48:55.908Z,70.70
2023-01-28T03:52:00.252Z,71.90
2023-01-28T03:58:18.120Z,69.80
2023-01-28T04:01:22.527Z,70.50
2023-01-28T04:04:25.871Z,69.20
2023-01-28T04:07:30.246Z,69.60
2023-01-28T04:10:33.821Z,70.20
2023-01-28T04:13:37.639Z,69.90
2023-01-28T04:16:41.397Z,71.00
2023-01-28T04:22:49.300Z,69.30
2023-01-28T04:25:53.249Z,67.70
2023-01-28T04:38:09.274Z,69.70
2023-01-28T04:47:20.593Z,70.40
2023-01-28T04:53:28.529Z,69.90
2023-01-28T05:08:47.644Z,70.70
2023-01-28T05:11:50.734Z,71.60
2023-01-28T05:24:06.806Z,70.90
2023-01-28T05:27:11.028Z,71.10
2023-01-28T05:54:46.471Z,71.80
2023-01-28T06:00:56.706Z,71.80
2023-01-28T06:10:10.883Z,70.60
2023-01-28T06:16:18.492Z,72.80
2023-01-28T06:19:22.807Z,73.30
2023-01-28T06:22:26.441Z,72.10
2023-01-28T06:28:34.702Z,70.60
2023-01-28T06:31:37.934Z,72.00
2023-01-28T06:37:45.542Z,71.60
2023-01-28T06:40:55.895Z,71.10
2023-01-28T06:43:58.892Z,71.60
2023-01-28T06:56:14.562Z,69.90
2023-01-28T07:05:28.146Z,70.50
2023-01-28T07:11:36.529Z,72.10
2023-01-28T07:14:39.570Z,73.10
2023-01-28T07:23:50.193Z,73.50
2023-01-28T07:26:55.112Z,73.00
2023-01-28T07:29:58.744Z,74.10
2023-01-28T07:42:14.617Z,73.80
2023-01-28T07:45:18.300Z,74.80
2023-01-28T07:48:21.433Z,74.60
2023-01-28T07:57:33.212Z,72.20
2023-01-28T08:00:39.437Z,73.90
2023-01-28T08:03:42.904Z,73.80
2023-01-28T08:06:46.271Z,72.40
2023-01-28T08:09:49.992Z,73.60
2023-01-28T08:12:56.239Z,73.60
2023-01-28T08:15:59.568Z,73.50
2023-01-28T08:19:03.565Z,73.30
2023-01-28T08:22:06.537Z,73.20
2023-01-28T08:25:10.330Z,73.10
2023-01-28T08:28:17.080Z,71.90
2023-01-28T08:31:20.525Z,72.80
2023-01-28T08:34:25.397Z,73.00
2023-01-28T08:37:29.983Z,73.00
2023-01-28T08:40:33.660Z,73.90
2023-01-28T08:43:38.137Z,72.80
2023-01-28T08:46:41.312Z,73.80
2023-01-28T08:49:44.323Z,71.80
2023-01-28T08:52:50.981Z,72.70
2023-01-28T08:55:56.386Z,71.90
2023-01-28T08:59:02.146Z,72.40
2023-01-28T09:02:05.419Z,72.50
2023-01-28T09:05:10.804Z,73.30
2023-01-28T09:08:16.246Z,72.70
2023-01-28T09:11:19.603Z,72.80
2023-01-28T09:14:24.103Z,72.30
2023-01-28T09:17:29.272Z,72.40
2023-01-28T09:20:33.342Z,71.90
2023-01-28T09:23:37.536Z,71.40
2023-01-28T09:26:40.655Z,73.00
2023-01-28T09:29:45.240Z,71.20
2023-01-28T09:32:52.295Z,71.40
2023-01-28T09:45:34.866Z,70.60
2023-01-28T09:48:43.933Z,71.10
2023-01-28T09:51:54.933Z,72.20
2023-01-28T09:55:05.974Z,71.70
2023-01-28T09:58:15.478Z,72.70
2023-01-28T10:01:40.922Z,71.50
2023-01-28T10:04:59.807Z,71.40
2023-01-28T10:08:20.591Z,71.30
2023-01-28T10:11:40.674Z,71.10
2023-01-28T10:15:05.991Z,71.00
2023-01-28T10:18:17.977Z,71.70
2023-01-28T10:21:28.391Z,71.00
2023-01-28T10:24:36.910Z,71.00
2023-01-28T10:27:40.105Z,70.90
2023-01-28T10:30:46.342Z,71.00
2023-01-28T10:33:51.079Z,70.90
2023-01-28T10:36:56.997Z,71.70
2023-01-28T10:40:03.072Z,71.00
2023-01-28T10:43:08.666Z,71.20
2023-01-28T10:46:20.188Z,71.40
2023-01-28T10:49:30.472Z,71.60
2023-01-28T10:52:35.054Z,71.50
2023-01-28T10:55:52.981Z,71.60
2023-01-28T10:59:03.715Z,71.30
2023-01-28T11:02:25.398Z,72.40
2023-01-28T11:05:31.994Z,72.00
2023-01-28T11:08:45.637Z,70.80
2023-01-28T11:11:48.812Z,71.20
2023-01-28T11:14:53.792Z,70.20
2023-01-28T11:18:02.103Z,70.20
2023-01-28T11:21:16.946Z,70.10
2023-01-28T11:24:26.964Z,69.60
2023-01-28T11:27:34.569Z,70.00
2023-01-28T11:30:41.513Z,70.20
2023-01-28T11:33:50.850Z,70.10
2023-01-28T11:37:03.560Z,70.00
2023-01-28T11:40:22.183Z,70.00
2023-01-28T11:43:28.541Z,69.90
2023-01-28T11:46:56.037Z,70.10
2023-01-28T11:50:24.310Z,69.60
2023-01-28T11:54:02.079Z,69.70
2023-01-28T11:57:23.467Z,69.60
2023-01-28T12:00:44.585Z,70.60
2023-01-28T12:04:18.419Z,70.80
2023-01-28T12:07:38.354Z,69.50
2023-01-28T12:10:58.291Z,70.40
2023-01-28T12:14:22.398Z,70.60
2023-01-28T12:17:43.673Z,69.40
2023-01-28T12:20:56.584Z,68.80
2023-01-28T12:24:19.352Z,69.30
2023-01-28T12:27:44.239Z,70.00
2023-01-28T12:31:13.548Z,68.80
2023-01-28T12:34:49.621Z,69.40
2023-01-28T12:38:04.514Z,69.40
2023-01-28T12:41:16.127Z,68.40
2023-01-28T12:44:30.153Z,68.10
2023-01-28T12:47:39.946Z,68.50
2023-01-28T12:50:49.007Z,68.50
2023-01-28T12:54:01.393Z,68.60
2023-01-28T12:57:05.808Z,69.40
2023-01-28T13:00:26.325Z,68.50
2023-01-28T13:03:39.303Z,68.30
2023-01-28T13:06:51.921Z,68.30
2023-01-28T13:10:08.039Z,68.40
2023-01-28T13:13:19.973Z,68.60
2023-01-28T13:16:36.871Z,68.80
2023-01-28T13:19:43.124Z,68.70
2023-01-28T13:22:46.582Z,69.00
2023-01-28T13:25:51.074Z,70.30
2023-01-28T13:29:07.680Z,70.30
2023-01-28T13:32:36.859Z,69.70
2023-01-28T13:35:43.878Z,69.40
2023-01-28T13:38:48.114Z,69.60
2023-01-28T13:41:54.393Z,69.70
2023-01-28T13:45:09.809Z,69.70
2023-01-28T13:48:30.798Z,68.00
2023-01-28T13:51:38.739Z,69.60
2023-01-28T13:54:47.065Z,69.50
2023-01-28T13:58:42.111Z,69.10
2023-01-28T14:02:29.746Z,68.90
2023-01-28T14:06:29.964Z,69.80
2023-01-28T14:10:01.456Z,69.60
2023-01-28T14:13:34.945Z,69.70
2023-01-28T14:16:52.251Z,69.90
2023-01-28T14:19:58.370Z,69.90
2023-01-28T14:23:05.655Z,68.80
2023-01-28T14:26:33.266Z,70.10
2023-01-28T14:30:04.788Z,70.90
2023-01-28T14:33:13.132Z,70.40
2023-01-28T14:36:17.822Z,70.40
2023-01-28T14:39:28.102Z,70.40
2023-01-28T14:42:40.668Z,70.50
2023-01-28T14:46:11.528Z,70.50
2023-01-28T14:49:33.944Z,71.00
2023-01-28T14:53:17.855Z,71.10
2023-01-28T14:56:37.546Z,71.40
2023-01-28T14:59:46.352Z,71.30
2023-01-28T15:02:50.129Z,71.30
2023-01-28T15:06:05.688Z,71.20
2023-01-28T15:09:14.827Z,71.60
2023-01-28T15:12:22.750Z,71.40
2023-01-28T15:15:34.638Z,71.50
2023-01-28T15:18:45.787Z,71.70
2023-01-28T15:21:55.427Z,72.40
2023-01-28T15:24:58.954Z,71.30
2023-01-28T15:28:03.515Z,72.20
2023-01-28T15:31:22.547Z,71.90
2023-01-28T15:34:30.177Z,72.30
2023-01-28T15:37:33.631Z,72.20
2023-01-28T15:40:44.006Z,72.60
2023-01-28T15:43:53.173Z,73.20
2023-01-28T15:46:57.771Z,72.60
2023-01-28T15:50:06.942Z,73.50
2023-01-28T15:53:12.066Z,72.70
2023-01-28T15:56:16.819Z,72.70
2023-01-28T15:59:31.127Z,72.50
2023-01-28T16:02:34.999Z,74.10
2023-01-28T16:05:42.466Z,71.50
2023-01-28T16:08:54.168Z,72.70
2023-01-28T16:12:04.833Z,73.50
2023-01-28T16:15:21.446Z,73.60
2023-01-28T16:18:39.006Z,73.60
2023-01-28T16:21:47.620Z,74.20
2023-01-28T16:24:54.763Z,74.80
2023-01-28T16:27:58.960Z,75.70
2023-01-28T16:31:03.740Z,74.40
2023-01-28T16:40:16.675Z,73.30
2023-01-28T16:46:28.950Z,73.20
2023-01-28T16:49:34.179Z,74.90
2023-01-28T16:52:37.678Z,74.00
2023-01-28T16:55:42.110Z,73.70
2023-01-28T17:01:51.569Z,75.00
2023-01-28T17:04:56.900Z,74.50
2023-01-28T17:08:00.212Z,74.00
2023-01-28T17:11:03.334Z,74.60
2023-01-28T17:14:07.214Z,75.80
2023-01-28T17:17:12.019Z,74.80
2023-01-28T17:20:14.914Z,74.80
2023-01-28T17:23:22.855Z,74.70
2023-01-28T17:26:26.342Z,74.70
2023-01-28T17:29:29.475Z,74.40
2023-01-28T17:32:33.937Z,74.40
2023-01-28T17:44:47.993Z,74.50
2023-01-28T17:47:52.481Z,74.50
2023-01-28T17:50:58.173Z,75.50
2023-01-28T17:54:01.461Z,75.10
2023-01-28T17:57:04.885Z,75.00
2023-01-28T18:00:11.750Z,75.00
2023-01-28T18:03:17.060Z,74.90
2023-01-28T18:18:36.288Z,74.20
2023-01-28T18:21:52.785Z,75.90
2023-01-28T18:24:56.731Z,75.60
2023-01-28T18:27:59.845Z,75.10
2023-01-28T18:31:07.134Z,75.70
2023-01-28T18:34:11.734Z,75.90
2023-01-28T18:37:14.888Z,76.10
2023-01-28T18:40:19.043Z,76.40
2023-01-28T18:43:22.481Z,75.90
2023-01-28T18:46:25.687Z,77.60
2023-01-28T18:49:30.087Z,75.30
2023-01-28T18:52:33.153Z,76.80
2023-01-28T18:55:36.449Z,75.80
2023-01-28T19:01:44.137Z,75.40
2023-01-28T19:04:48.687Z,74.40
2023-01-28T19:07:52.125Z,76.20
2023-01-28T19:10:58.042Z,76.10
2023-01-28T19:14:01.699Z,77.70
2023-01-28T19:20:14.165Z,75.40
2023-01-28T19:23:17.275Z,75.80
2023-01-28T19:26:22.562Z,75.90
2023-01-28T19:29:28.423Z,75.90
2023-01-28T19:35:37.058Z,75.10
2023-01-28T19:38:41.053Z,76.10
2023-01-28T19:50:56.676Z,73.90
2023-01-28T20:06:18.546Z,74.70
2023-01-28T20:36:56.323Z,74.60
2023-01-28T20:39:59.518Z,75.10
2023-01-28T21:07:42.016Z,75.70
2023-01-28T21:10:45.727Z,76.10
2023-01-28T21:13:49.787Z,76.20
2023-01-28T21:16:53.408Z,76.20
2023-01-28T21:23:02.384Z,75.60
2023-01-28T21:26:07.122Z,76.20
2023-01-28T21:38:23.683Z,76.00
2023-01-28T21:41:27.108Z,75.60
2023-01-28T21:44:30.194Z,76.30
2023-01-28T21:47:33.323Z,76.60
2023-01-28T21:50:56.365Z,76.30
2023-01-28T21:54:00.777Z,76.70
2023-01-28T21:57:03.833Z,76.80
2023-01-28T22:00:09.606Z,76.50
2023-01-28T22:03:12.676Z,76.50
2023-01-28T22:06:16.113Z,75.20
2023-01-28T22:09:20.725Z,76.40
2023-01-28T22:12:24.146Z,76.30
2023-01-28T22:15:27.340Z,76.60
2023-01-28T22:18:31.290Z,76.30
2023-01-28T22:21:40.790Z,76.30
2023-01-28T22:24:45.768Z,76.40
2023-01-28T22:27:49.632Z,76.40
2023-01-28T22:30:53.617Z,77.10
2023-01-28T22:33:56.704Z,77.00
2023-01-28T22:37:00.019Z,77.10
2023-01-28T22:40:05.195Z,76.30
2023-01-28T22:43:08.473Z,77.20
2023-01-28T22:46:12.118Z,77.50
2023-01-28T22:49:15.748Z,76.40
2023-01-28T22:52:18.860Z,76.30
2023-01-28T22:55:24.206Z,77.50
2023-01-28T22:58:28.857Z,76.30
2023-01-28T23:01:33.653Z,76.70
2023-01-28T23:04:40.650Z,76.50
2023-01-28T23:07:44.071Z,75.80
2023-01-28T23:10:51.586Z,76.10
2023-01-28T23:14:15.431Z,76.30
2023-01-28T23:17:36.340Z,76.30
2023-01-28T23:20:58.178Z,76.20
2023-01-28T23:24:19.720Z,76.50
2023-01-28T23:27:25.365Z,76.50
2023-01-28T23:30:28.639Z,76.70
2023-01-28T23:33:31.940Z,76.50
2023-01-28T23:36:35.922Z,77.80
2023-01-28T23:39:38.964Z,77.40
2023-01-28T23:42:44.685Z,76.70
2023-01-28T23:45:48.223Z,76.60
2023-01-28T23:48:51.704Z,76.50
2023-01-28T23:51:55.162Z,76.40
2023-01-28T23:54:58.165Z,76.00
2023-01-28T23:58:02.548Z,75.80
